sensor_id;sensor_type;location;lat;lon;timestamp;temperature;humidity
68480;DHT22;55469;48.934;12.050;2022-12-18T00:01:51;-1.00;93.10
68480;DHT22;55469;48.934;12.050;2022-12-18T00:04:23;-1.00;93.10
68480;DHT22;55469;48.934;12.050;2022-12-18T00:06:49;-1.00;93.10
68480;DHT22;55469;48.934;12.050;2022-12-18T00:09:16;-1.00;93.10
68480;DHT22;55469;48.934;12.050;2022-12-18T00:11:41;-1.00;93.10
68480;DHT22;55469;48.934;12.050;2022-12-18T00:14:10;-1.00;93.10
68480;DHT22;55469;48.934;12.050;2022-12-18T00:16:36;-1.00;93.10
68480;DHT22;55469;48.934;12.050;2022-12-18T00:19:03;-1.00;93.60
68480;DHT22;55469;48.934;12.050;2022-12-18T00:21:31;-1.00;93.10
68480;DHT22;55469;48.934;12.050;2022-12-18T00:23:58;-1.00;93.10
68480;DHT22;55469;48.934;12.050;2022-12-18T00:26:35;-1.00;93.10
68480;DHT22;55469;48.934;12.050;2022-12-18T00:29:05;-1.00;93.10
68480;DHT22;55469;48.934;12.050;2022-12-18T00:31:33;-1.00;93.10
68480;DHT22;55469;48.934;12.050;2022-12-18T00:33:58;-1.00;93.10
68480;DHT22;55469;48.934;12.050;2022-12-18T00:36:33;-1.00;93.10
68480;DHT22;55469;48.934;12.050;2022-12-18T00:39:01;-1.00;93.10
68480;DHT22;55469;48.934;12.050;2022-12-18T00:41:28;-1.00;93.10
68480;DHT22;55469;48.934;12.050;2022-12-18T00:44:15;-1.00;93.60
68480;DHT22;55469;48.934;12.050;2022-12-18T00:46:42;-1.00;93.10
68480;DHT22;55469;48.934;12.050;2022-12-18T00:49:09;-1.00;93.10
68480;DHT22;55469;48.934;12.050;2022-12-18T00:51:35;-1.00;93.10
68480;DHT22;55469;48.934;12.050;2022-12-18T00:54:01;-1.00;93.10
68480;DHT22;55469;48.934;12.050;2022-12-18T00:56:27;-1.00;93.60
68480;DHT22;55469;48.934;12.050;2022-12-18T00:58:53;-1.00;93.10
68480;DHT22;55469;48.934;12.050;2022-12-18T01:01:19;-1.00;93.10
68480;DHT22;55469;48.934;12.050;2022-12-18T01:03:45;-1.00;93.10
68480;DHT22;55469;48.934;12.050;2022-12-18T01:06:13;-1.00;93.10
68480;DHT22;55469;48.934;12.050;2022-12-18T01:08:40;-1.00;93.10
68480;DHT22;55469;48.934;12.050;2022-12-18T01:11:17;-1.00;93.10
68480;DHT22;55469;48.934;12.050;2022-12-18T01:13:44;-1.00;93.10
68480;DHT22;55469;48.934;12.050;2022-12-18T01:16:14;-1.00;93.10
68480;DHT22;55469;48.934;12.050;2022-12-18T01:18:41;-1.00;93.10
68480;DHT22;55469;48.934;12.050;2022-12-18T01:21:13;-1.00;93.10
68480;DHT22;55469;48.934;12.050;2022-12-18T01:23:41;-1.00;93.10
68480;DHT22;55469;48.934;12.050;2022-12-18T01:26:12;-1.00;93.10
68480;DHT22;55469;48.934;12.050;2022-12-18T01:28:40;-1.00;93.10
68480;DHT22;55469;48.934;12.050;2022-12-18T01:31:27;-1.00;93.10
68480;DHT22;55469;48.934;12.050;2022-12-18T01:33:55;-1.00;93.10
68480;DHT22;55469;48.934;12.050;2022-12-18T01:36:26;-1.00;93.10
68480;DHT22;55469;48.934;12.050;2022-12-18T01:38:54;-1.00;93.10
68480;DHT22;55469;48.934;12.050;2022-12-18T01:41:23;-1.00;93.10
68480;DHT22;55469;48.934;12.050;2022-12-18T01:43:51;-1.00;93.10
68480;DHT22;55469;48.934;12.050;2022-12-18T01:46:24;-1.00;93.10
68480;DHT22;55469;48.934;12.050;2022-12-18T01:48:55;-1.00;93.10
68480;DHT22;55469;48.934;12.050;2022-12-18T01:51:23;-1.00;93.10
68480;DHT22;55469;48.934;12.050;2022-12-18T01:53:49;-1.00;93.10
68480;DHT22;55469;48.934;12.050;2022-12-18T01:56:17;-1.00;93.10
68480;DHT22;55469;48.934;12.050;2022-12-18T01:59:05;-1.00;93.10
68480;DHT22;55469;48.934;12.050;2022-12-18T02:01:33;-1.00;93.10
68480;DHT22;55469;48.934;12.050;2022-12-18T02:07:53;-1.00;93.10
68480;DHT22;55469;48.934;12.050;2022-12-18T02:10:32;-1.00;93.10
68480;DHT22;55469;48.934;12.050;2022-12-18T02:13:19;-1.10;93.10
68480;DHT22;55469;48.934;12.050;2022-12-18T02:18:56;-1.00;93.20
68480;DHT22;55469;48.934;12.050;2022-12-18T02:22:00;-1.00;93.20
68480;DHT22;55469;48.934;12.050;2022-12-18T02:24:54;-1.10;93.10
68480;DHT22;55469;48.934;12.050;2022-12-18T02:27:45;-1.10;93.10
68480;DHT22;55469;48.934;12.050;2022-12-18T02:30:13;-1.00;93.10
68480;DHT22;55469;48.934;12.050;2022-12-18T02:32:42;-1.00;93.20
68480;DHT22;55469;48.934;12.050;2022-12-18T02:35:17;-1.10;93.10
68480;DHT22;55469;48.934;12.050;2022-12-18T02:37:53;-1.00;93.10
68480;DHT22;55469;48.934;12.050;2022-12-18T02:40:21;-1.00;93.10
68480;DHT22;55469;48.934;12.050;2022-12-18T02:42:49;-1.00;93.20
68480;DHT22;55469;48.934;12.050;2022-12-18T02:45:15;-1.10;93.10
68480;DHT22;55469;48.934;12.050;2022-12-18T02:47:44;-1.00;93.10
68480;DHT22;55469;48.934;12.050;2022-12-18T02:59:02;-1.00;93.10
68480;DHT22;55469;48.934;12.050;2022-12-18T03:01:41;-1.10;93.10
68480;DHT22;55469;48.934;12.050;2022-12-18T03:04:29;-1.10;93.10
68480;DHT22;55469;48.934;12.050;2022-12-18T03:07:02;-1.00;93.10
68480;DHT22;55469;48.934;12.050;2022-12-18T03:09:38;-1.00;93.10
68480;DHT22;55469;48.934;12.050;2022-12-18T03:12:22;-1.10;93.10
68480;DHT22;55469;48.934;12.050;2022-12-18T03:15:21;-1.10;93.10
68480;DHT22;55469;48.934;12.050;2022-12-18T03:18:01;-1.00;93.10
68480;DHT22;55469;48.934;12.050;2022-12-18T03:20:32;-1.10;93.60
68480;DHT22;55469;48.934;12.050;2022-12-18T03:23:04;-1.10;93.10
68480;DHT22;55469;48.934;12.050;2022-12-18T03:25:34;-1.10;93.10
68480;DHT22;55469;48.934;12.050;2022-12-18T03:28:03;-1.10;93.10
68480;DHT22;55469;48.934;12.050;2022-12-18T03:30:34;-1.10;93.20
68480;DHT22;55469;48.934;12.050;2022-12-18T03:33:08;-1.10;93.20
68480;DHT22;55469;48.934;12.050;2022-12-18T03:35:40;-1.10;93.10
68480;DHT22;55469;48.934;12.050;2022-12-18T03:38:08;-1.10;93.10
68480;DHT22;55469;48.934;12.050;2022-12-18T03:40:51;-1.10;93.10
68480;DHT22;55469;48.934;12.050;2022-12-18T03:43:40;-1.00;93.20
68480;DHT22;55469;48.934;12.050;2022-12-18T03:46:21;-1.10;93.10
68480;DHT22;55469;48.934;12.050;2022-12-18T03:48:52;-1.00;93.10
68480;DHT22;55469;48.934;12.050;2022-12-18T03:51:54;-1.10;93.10
68480;DHT22;55469;48.934;12.050;2022-12-18T03:54:28;-1.00;93.20
68480;DHT22;55469;48.934;12.050;2022-12-18T03:57:03;-1.10;93.10
68480;DHT22;55469;48.934;12.050;2022-12-18T03:59:33;-1.00;93.20
68480;DHT22;55469;48.934;12.050;2022-12-18T04:02:00;-1.10;93.10
68480;DHT22;55469;48.934;12.050;2022-12-18T04:04:28;-1.10;93.10
68480;DHT22;55469;48.934;12.050;2022-12-18T04:06:54;-1.00;93.20
68480;DHT22;55469;48.934;12.050;2022-12-18T04:09:21;-1.00;93.10
68480;DHT22;55469;48.934;12.050;2022-12-18T04:11:47;-1.00;93.10
68480;DHT22;55469;48.934;12.050;2022-12-18T04:14:14;-1.00;93.60
68480;DHT22;55469;48.934;12.050;2022-12-18T04:16:40;-1.10;93.10
68480;DHT22;55469;48.934;12.050;2022-12-18T04:19:06;-1.10;93.10
68480;DHT22;55469;48.934;12.050;2022-12-18T04:21:31;-1.10;93.10
68480;DHT22;55469;48.934;12.050;2022-12-18T04:23:57;-1.10;93.10
68480;DHT22;55469;48.934;12.050;2022-12-18T04:26:23;-1.10;93.10
68480;DHT22;55469;48.934;12.050;2022-12-18T04:28:49;-1.10;93.10
68480;DHT22;55469;48.934;12.050;2022-12-18T04:31:14;-1.10;93.10
68480;DHT22;55469;48.934;12.050;2022-12-18T04:33:40;-1.10;93.10
68480;DHT22;55469;48.934;12.050;2022-12-18T04:36:06;-1.00;93.20
68480;DHT22;55469;48.934;12.050;2022-12-18T04:38:32;-1.00;93.10
68480;DHT22;55469;48.934;12.050;2022-12-18T04:41:01;-1.10;93.10
68480;DHT22;55469;48.934;12.050;2022-12-18T04:43:26;-1.00;93.10
68480;DHT22;55469;48.934;12.050;2022-12-18T04:45:52;-1.00;93.10
68480;DHT22;55469;48.934;12.050;2022-12-18T04:48:18;-1.00;93.10
68480;DHT22;55469;48.934;12.050;2022-12-18T04:50:46;-1.10;93.10
68480;DHT22;55469;48.934;12.050;2022-12-18T04:53:13;-1.00;93.10
68480;DHT22;55469;48.934;12.050;2022-12-18T04:55:38;-1.00;93.60
68480;DHT22;55469;48.934;12.050;2022-12-18T04:58:04;-1.00;93.10
68480;DHT22;55469;48.934;12.050;2022-12-18T05:00:30;-1.00;93.10
68480;DHT22;55469;48.934;12.050;2022-12-18T05:02:56;-1.10;93.10
68480;DHT22;55469;48.934;12.050;2022-12-18T05:05:21;-1.10;93.10
68480;DHT22;55469;48.934;12.050;2022-12-18T05:07:47;-1.10;93.10
68480;DHT22;55469;48.934;12.050;2022-12-18T05:10:13;-1.10;93.10
68480;DHT22;55469;48.934;12.050;2022-12-18T05:12:38;-1.00;93.10
68480;DHT22;55469;48.934;12.050;2022-12-18T05:15:23;-1.00;93.10
68480;DHT22;55469;48.934;12.050;2022-12-18T05:17:51;-1.00;93.10
68480;DHT22;55469;48.934;12.050;2022-12-18T05:20:17;-1.00;93.20
68480;DHT22;55469;48.934;12.050;2022-12-18T05:22:43;-1.00;93.10
68480;DHT22;55469;48.934;12.050;2022-12-18T05:25:09;-1.00;93.10
68480;DHT22;55469;48.934;12.050;2022-12-18T05:27:35;-1.10;93.10
68480;DHT22;55469;48.934;12.050;2022-12-18T05:30:01;-1.10;93.10
68480;DHT22;55469;48.934;12.050;2022-12-18T05:32:26;-1.00;93.20
68480;DHT22;55469;48.934;12.050;2022-12-18T05:34:52;-1.00;93.20
68480;DHT22;55469;48.934;12.050;2022-12-18T05:37:18;-1.10;93.10
68480;DHT22;55469;48.934;12.050;2022-12-18T05:39:44;-1.10;93.60
68480;DHT22;55469;48.934;12.050;2022-12-18T05:42:09;-1.10;93.10
68480;DHT22;55469;48.934;12.050;2022-12-18T05:44:35;-1.10;93.10
68480;DHT22;55469;48.934;12.050;2022-12-18T05:47:01;-1.10;93.20
68480;DHT22;55469;48.934;12.050;2022-12-18T05:49:27;-1.10;93.10
68480;DHT22;55469;48.934;12.050;2022-12-18T05:51:53;-1.00;93.10
68480;DHT22;55469;48.934;12.050;2022-12-18T05:54:18;-1.00;93.20
68480;DHT22;55469;48.934;12.050;2022-12-18T05:56:44;-1.00;93.20
68480;DHT22;55469;48.934;12.050;2022-12-18T05:59:10;-1.10;93.10
68480;DHT22;55469;48.934;12.050;2022-12-18T06:01:36;-1.10;93.10
68480;DHT22;55469;48.934;12.050;2022-12-18T06:04:01;-1.00;93.10
68480;DHT22;55469;48.934;12.050;2022-12-18T06:06:28;-1.00;93.20
68480;DHT22;55469;48.934;12.050;2022-12-18T06:08:55;-1.00;93.60
68480;DHT22;55469;48.934;12.050;2022-12-18T06:11:23;-1.10;93.10
68480;DHT22;55469;48.934;12.050;2022-12-18T06:13:54;-1.10;93.10
68480;DHT22;55469;48.934;12.050;2022-12-18T06:16:20;-1.10;93.10
68480;DHT22;55469;48.934;12.050;2022-12-18T06:18:46;-1.10;93.10
68480;DHT22;55469;48.934;12.050;2022-12-18T06:21:12;-1.10;93.10
68480;DHT22;55469;48.934;12.050;2022-12-18T06:23:38;-1.10;93.10
68480;DHT22;55469;48.934;12.050;2022-12-18T06:26:08;-1.00;93.20
68480;DHT22;55469;48.934;12.050;2022-12-18T06:28:37;-1.00;93.20
68480;DHT22;55469;48.934;12.050;2022-12-18T06:31:04;-1.10;93.60
68480;DHT22;55469;48.934;12.050;2022-12-18T06:33:30;-1.00;93.20
68480;DHT22;55469;48.934;12.050;2022-12-18T06:36:08;-1.10;93.20
68480;DHT22;55469;48.934;12.050;2022-12-18T06:38:37;-1.10;93.20
68480;DHT22;55469;48.934;12.050;2022-12-18T06:41:11;-1.10;93.10
68480;DHT22;55469;48.934;12.050;2022-12-18T06:43:39;-1.10;93.10
68480;DHT22;55469;48.934;12.050;2022-12-18T06:46:05;-1.10;93.10
68480;DHT22;55469;48.934;12.050;2022-12-18T06:48:31;-1.10;93.10
68480;DHT22;55469;48.934;12.050;2022-12-18T06:50:57;-1.10;93.20
68480;DHT22;55469;48.934;12.050;2022-12-18T06:53:23;-1.10;93.20
68480;DHT22;55469;48.934;12.050;2022-12-18T06:55:49;-1.10;93.20
68480;DHT22;55469;48.934;12.050;2022-12-18T06:58:15;-1.10;93.10
68480;DHT22;55469;48.934;12.050;2022-12-18T07:00:41;-1.10;93.20
68480;DHT22;55469;48.934;12.050;2022-12-18T07:03:07;-1.10;93.20
68480;DHT22;55469;48.934;12.050;2022-12-18T07:05:33;-1.10;93.20
68480;DHT22;55469;48.934;12.050;2022-12-18T07:07:58;-1.10;93.20
68480;DHT22;55469;48.934;12.050;2022-12-18T07:10:24;-1.10;93.20
68480;DHT22;55469;48.934;12.050;2022-12-18T07:12:50;-1.10;93.20
68480;DHT22;55469;48.934;12.050;2022-12-18T07:15:16;-1.10;93.20
68480;DHT22;55469;48.934;12.050;2022-12-18T07:17:42;-1.10;93.10
68480;DHT22;55469;48.934;12.050;2022-12-18T07:20:08;-1.10;93.10
68480;DHT22;55469;48.934;12.050;2022-12-18T07:22:34;-1.10;93.10
68480;DHT22;55469;48.934;12.050;2022-12-18T07:25:00;-1.10;93.20
68480;DHT22;55469;48.934;12.050;2022-12-18T07:27:26;-1.10;93.10
68480;DHT22;55469;48.934;12.050;2022-12-18T07:29:52;-1.10;93.20
68480;DHT22;55469;48.934;12.050;2022-12-18T07:32:17;-1.10;93.10
68480;DHT22;55469;48.934;12.050;2022-12-18T07:34:43;-1.00;93.10
68480;DHT22;55469;48.934;12.050;2022-12-18T07:37:09;-1.10;93.10
68480;DHT22;55469;48.934;12.050;2022-12-18T07:39:35;-1.10;93.10
68480;DHT22;55469;48.934;12.050;2022-12-18T07:42:00;-1.10;93.10
68480;DHT22;55469;48.934;12.050;2022-12-18T07:44:45;-1.00;93.60
68480;DHT22;55469;48.934;12.050;2022-12-18T07:47:10;-1.00;93.10
68480;DHT22;55469;48.934;12.050;2022-12-18T07:49:36;-1.10;93.10
68480;DHT22;55469;48.934;12.050;2022-12-18T07:52:02;-1.10;93.10
68480;DHT22;55469;48.934;12.050;2022-12-18T07:54:27;-1.00;93.10
68480;DHT22;55469;48.934;12.050;2022-12-18T07:56:53;-1.00;93.10
68480;DHT22;55469;48.934;12.050;2022-12-18T07:59:19;-1.00;93.10
68480;DHT22;55469;48.934;12.050;2022-12-18T08:01:45;-1.00;93.10
68480;DHT22;55469;48.934;12.050;2022-12-18T08:04:10;-1.00;93.10
68480;DHT22;55469;48.934;12.050;2022-12-18T08:06:36;-1.00;93.50
68480;DHT22;55469;48.934;12.050;2022-12-18T08:09:02;-1.00;93.10
68480;DHT22;55469;48.934;12.050;2022-12-18T08:11:28;-1.00;93.10
68480;DHT22;55469;48.934;12.050;2022-12-18T08:13:54;-1.00;93.10
68480;DHT22;55469;48.934;12.050;2022-12-18T08:16:21;-1.00;93.00
68480;DHT22;55469;48.934;12.050;2022-12-18T08:18:48;-1.00;93.10
68480;DHT22;55469;48.934;12.050;2022-12-18T08:21:16;-1.00;93.00
68480;DHT22;55469;48.934;12.050;2022-12-18T08:23:44;-1.00;93.00
68480;DHT22;55469;48.934;12.050;2022-12-18T08:26:11;-1.00;93.00
68480;DHT22;55469;48.934;12.050;2022-12-18T08:28:37;-1.00;93.00
68480;DHT22;55469;48.934;12.050;2022-12-18T08:31:03;-0.90;93.00
68480;DHT22;55469;48.934;12.050;2022-12-18T08:33:29;-1.00;93.00
68480;DHT22;55469;48.934;12.050;2022-12-18T08:35:55;-1.00;93.00
68480;DHT22;55469;48.934;12.050;2022-12-18T08:38:20;-1.00;93.00
68480;DHT22;55469;48.934;12.050;2022-12-18T08:40:46;-1.00;93.00
68480;DHT22;55469;48.934;12.050;2022-12-18T08:43:12;-0.90;93.00
68480;DHT22;55469;48.934;12.050;2022-12-18T08:45:56;-0.90;93.00
68480;DHT22;55469;48.934;12.050;2022-12-18T08:48:22;-1.00;93.00
68480;DHT22;55469;48.934;12.050;2022-12-18T08:50:57;-1.00;93.00
68480;DHT22;55469;48.934;12.050;2022-12-18T08:53:23;-0.90;93.00
68480;DHT22;55469;48.934;12.050;2022-12-18T08:55:49;-1.00;93.00
68480;DHT22;55469;48.934;12.050;2022-12-18T08:58:15;-0.90;93.00
68480;DHT22;55469;48.934;12.050;2022-12-18T09:00:41;-0.90;93.00
68480;DHT22;55469;48.934;12.050;2022-12-18T09:03:14;-0.90;92.90
68480;DHT22;55469;48.934;12.050;2022-12-18T09:05:41;-0.90;93.00
68480;DHT22;55469;48.934;12.050;2022-12-18T09:08:06;-1.00;92.90
68480;DHT22;55469;48.934;12.050;2022-12-18T09:10:32;-0.90;93.00
68480;DHT22;55469;48.934;12.050;2022-12-18T09:12:59;-0.90;92.90
68480;DHT22;55469;48.934;12.050;2022-12-18T09:15:24;-0.90;92.90
68480;DHT22;55469;48.934;12.050;2022-12-18T09:17:50;-0.90;93.40
68480;DHT22;55469;48.934;12.050;2022-12-18T09:20:18;-0.90;92.90
68480;DHT22;55469;48.934;12.050;2022-12-18T09:22:44;-0.90;92.90
68480;DHT22;55469;48.934;12.050;2022-12-18T09:25:10;-0.90;92.90
68480;DHT22;55469;48.934;12.050;2022-12-18T09:27:36;-0.90;92.90
68480;DHT22;55469;48.934;12.050;2022-12-18T09:30:03;-0.90;92.90
68480;DHT22;55469;48.934;12.050;2022-12-18T09:32:29;-0.90;92.90
68480;DHT22;55469;48.934;12.050;2022-12-18T09:34:55;-0.90;92.80
68480;DHT22;55469;48.934;12.050;2022-12-18T09:37:20;-0.90;92.80
68480;DHT22;55469;48.934;12.050;2022-12-18T09:39:46;-0.80;92.80
68480;DHT22;55469;48.934;12.050;2022-12-18T09:42:21;-0.80;92.80
68480;DHT22;55469;48.934;12.050;2022-12-18T09:44:53;-0.80;92.90
68480;DHT22;55469;48.934;12.050;2022-12-18T09:47:27;-0.80;92.90
68480;DHT22;55469;48.934;12.050;2022-12-18T09:50:02;-0.80;92.90
68480;DHT22;55469;48.934;12.050;2022-12-18T09:52:41;-0.80;92.80
68480;DHT22;55469;48.934;12.050;2022-12-18T09:57:57;-0.80;92.80
68480;DHT22;55469;48.934;12.050;2022-12-18T10:00:46;-0.80;92.80
68480;DHT22;55469;48.934;12.050;2022-12-18T10:03:14;-0.80;92.80
68480;DHT22;55469;48.934;12.050;2022-12-18T10:05:48;-0.80;92.80
68480;DHT22;55469;48.934;12.050;2022-12-18T10:08:37;-0.80;92.70
68480;DHT22;55469;48.934;12.050;2022-12-18T10:11:36;-0.80;92.80
68480;DHT22;55469;48.934;12.050;2022-12-18T10:17:00;-0.80;92.70
68480;DHT22;55469;48.934;12.050;2022-12-18T10:19:46;-0.80;92.70
68480;DHT22;55469;48.934;12.050;2022-12-18T10:25:03;-0.80;92.70
68480;DHT22;55469;48.934;12.050;2022-12-18T10:27:35;-0.80;92.70
68480;DHT22;55469;48.934;12.050;2022-12-18T10:30:11;-0.80;92.70
68480;DHT22;55469;48.934;12.050;2022-12-18T10:32:39;-0.70;92.70
68480;DHT22;55469;48.934;12.050;2022-12-18T10:35:08;-0.70;92.70
68480;DHT22;55469;48.934;12.050;2022-12-18T10:38:27;-0.70;92.70
68480;DHT22;55469;48.934;12.050;2022-12-18T10:43:32;-0.70;92.60
68480;DHT22;55469;48.934;12.050;2022-12-18T10:51:27;-0.70;92.60
68480;DHT22;55469;48.934;12.050;2022-12-18T10:54:05;-0.60;92.60
68480;DHT22;55469;48.934;12.050;2022-12-18T10:56:35;-0.70;93.10
68480;DHT22;55469;48.934;12.050;2022-12-18T10:59:06;-0.70;92.60
68480;DHT22;55469;48.934;12.050;2022-12-18T11:01:50;-0.70;92.60
68480;DHT22;55469;48.934;12.050;2022-12-18T11:04:35;-0.70;92.50
68480;DHT22;55469;48.934;12.050;2022-12-18T11:07:15;-0.70;92.60
68480;DHT22;55469;48.934;12.050;2022-12-18T11:09:41;-0.70;92.50
68480;DHT22;55469;48.934;12.050;2022-12-18T11:14:53;-0.70;92.50
68480;DHT22;55469;48.934;12.050;2022-12-18T11:17:32;-0.60;92.60
68480;DHT22;55469;48.934;12.050;2022-12-18T11:20:30;-0.60;92.50
68480;DHT22;55469;48.934;12.050;2022-12-18T11:23:03;-0.60;92.50
68480;DHT22;55469;48.934;12.050;2022-12-18T11:25:30;-0.60;92.50
68480;DHT22;55469;48.934;12.050;2022-12-18T11:28:03;-0.60;92.50
68480;DHT22;55469;48.934;12.050;2022-12-18T11:30:33;-0.60;93.00
68480;DHT22;55469;48.934;12.050;2022-12-18T11:33:06;-0.60;92.50
68480;DHT22;55469;48.934;12.050;2022-12-18T11:35:40;-0.60;92.50
68480;DHT22;55469;48.934;12.050;2022-12-18T11:38:22;-0.60;92.50
68480;DHT22;55469;48.934;12.050;2022-12-18T11:41:30;-0.60;92.50
68480;DHT22;55469;48.934;12.050;2022-12-18T11:44:26;-0.60;92.50
68480;DHT22;55469;48.934;12.050;2022-12-18T11:47:52;-0.60;92.50
68480;DHT22;55469;48.934;12.050;2022-12-18T11:50:03;-0.60;92.50
68480;DHT22;55469;48.934;12.050;2022-12-18T11:52:40;-0.60;92.50
68480;DHT22;55469;48.934;12.050;2022-12-18T11:55:35;-0.60;92.50
68480;DHT22;55469;48.934;12.050;2022-12-18T12:00:45;-0.60;92.50
68480;DHT22;55469;48.934;12.050;2022-12-18T12:15:54;-0.60;92.40
68480;DHT22;55469;48.934;12.050;2022-12-18T12:21:28;-0.50;92.50
68480;DHT22;55469;48.934;12.050;2022-12-18T12:27:18;-0.50;92.40
68480;DHT22;55469;48.934;12.050;2022-12-18T12:40:35;-0.50;92.40
68480;DHT22;55469;48.934;12.050;2022-12-18T12:43:38;-0.50;92.50
68480;DHT22;55469;48.934;12.050;2022-12-18T12:46:11;-0.50;92.50
68480;DHT22;55469;48.934;12.050;2022-12-18T12:48:50;-0.50;92.50
68480;DHT22;55469;48.934;12.050;2022-12-18T12:51:26;-0.50;92.50
68480;DHT22;55469;48.934;12.050;2022-12-18T12:54:00;-0.50;92.50
68480;DHT22;55469;48.934;12.050;2022-12-18T12:56:42;-0.60;92.50
68480;DHT22;55469;48.934;12.050;2022-12-18T13:02:29;-0.50;92.40
68480;DHT22;55469;48.934;12.050;2022-12-18T13:05:05;-0.50;92.50
68480;DHT22;55469;48.934;12.050;2022-12-18T13:07:37;-0.50;92.50
68480;DHT22;55469;48.934;12.050;2022-12-18T13:13:11;-0.50;92.40
68480;DHT22;55469;48.934;12.050;2022-12-18T13:15:38;-0.50;92.50
68480;DHT22;55469;48.934;12.050;2022-12-18T13:21:01;-0.50;92.50
68480;DHT22;55469;48.934;12.050;2022-12-18T13:23:36;-0.50;92.50
68480;DHT22;55469;48.934;12.050;2022-12-18T13:31:14;-0.50;92.50
68480;DHT22;55469;48.934;12.050;2022-12-18T13:33:43;-0.50;92.40
68480;DHT22;55469;48.934;12.050;2022-12-18T13:38:43;-0.50;92.40
68480;DHT22;55469;48.934;12.050;2022-12-18T13:43:46;-0.50;92.90
68480;DHT22;55469;48.934;12.050;2022-12-18T13:51:42;-0.50;92.40
68480;DHT22;55469;48.934;12.050;2022-12-18T13:54:35;-0.50;92.50
68480;DHT22;55469;48.934;12.050;2022-12-18T13:57:04;-0.50;92.50
68480;DHT22;55469;48.934;12.050;2022-12-18T13:59:39;-0.50;92.50
68480;DHT22;55469;48.934;12.050;2022-12-18T14:02:21;-0.50;92.50
68480;DHT22;55469;48.934;12.050;2022-12-18T14:04:49;-0.50;92.60
68480;DHT22;55469;48.934;12.050;2022-12-18T14:07:26;-0.50;92.50
68480;DHT22;55469;48.934;12.050;2022-12-18T14:09:55;-0.50;92.60
68480;DHT22;55469;48.934;12.050;2022-12-18T14:12:25;-0.60;92.60
68480;DHT22;55469;48.934;12.050;2022-12-18T14:17:55;-0.60;92.50
68480;DHT22;55469;48.934;12.050;2022-12-18T14:20:24;-0.60;92.60
68480;DHT22;55469;48.934;12.050;2022-12-18T14:22:50;-0.60;92.60
68480;DHT22;55469;48.934;12.050;2022-12-18T14:25:22;-0.60;92.60
68480;DHT22;55469;48.934;12.050;2022-12-18T14:28:12;-0.60;92.60
68480;DHT22;55469;48.934;12.050;2022-12-18T14:30:45;-0.60;92.60
68480;DHT22;55469;48.934;12.050;2022-12-18T14:33:13;-0.60;92.70
68480;DHT22;55469;48.934;12.050;2022-12-18T14:35:52;-0.60;92.70
68480;DHT22;55469;48.934;12.050;2022-12-18T14:41:15;-0.60;92.70
68480;DHT22;55469;48.934;12.050;2022-12-18T14:43:44;-0.60;92.70
68480;DHT22;55469;48.934;12.050;2022-12-18T14:49:03;-0.60;92.70
68480;DHT22;55469;48.934;12.050;2022-12-18T14:51:32;-0.60;92.70
68480;DHT22;55469;48.934;12.050;2022-12-18T14:54:06;-0.70;92.70
68480;DHT22;55469;48.934;12.050;2022-12-18T14:56:47;-0.60;92.70
68480;DHT22;55469;48.934;12.050;2022-12-18T14:59:27;-0.60;92.70
68480;DHT22;55469;48.934;12.050;2022-12-18T15:05:14;-0.70;92.70
68480;DHT22;55469;48.934;12.050;2022-12-18T15:10:16;-0.70;92.80
68480;DHT22;55469;48.934;12.050;2022-12-18T15:12:45;-0.70;92.80
68480;DHT22;55469;48.934;12.050;2022-12-18T15:23:25;-0.80;92.90
68480;DHT22;55469;48.934;12.050;2022-12-18T15:25:58;-0.80;92.90
68480;DHT22;55469;48.934;12.050;2022-12-18T15:28:45;-0.80;92.90
68480;DHT22;55469;48.934;12.050;2022-12-18T15:33:42;-0.80;93.00
68480;DHT22;55469;48.934;12.050;2022-12-18T15:36:13;-0.90;93.00
68480;DHT22;55469;48.934;12.050;2022-12-18T15:38:41;-0.90;93.00
68480;DHT22;55469;48.934;12.050;2022-12-18T15:41:13;-0.90;93.00
68480;DHT22;55469;48.934;12.050;2022-12-18T15:43:40;-0.90;93.10
68480;DHT22;55469;48.934;12.050;2022-12-18T15:46:14;-0.90;93.10
68480;DHT22;55469;48.934;12.050;2022-12-18T15:48:44;-1.00;93.10
68480;DHT22;55469;48.934;12.050;2022-12-18T15:51:15;-0.90;93.20
68480;DHT22;55469;48.934;12.050;2022-12-18T15:53:42;-1.00;93.10
68480;DHT22;55469;48.934;12.050;2022-12-18T15:56:13;-1.00;93.20
68480;DHT22;55469;48.934;12.050;2022-12-18T15:58:58;-1.00;93.20
68480;DHT22;55469;48.934;12.050;2022-12-18T16:01:27;-1.00;93.20
68480;DHT22;55469;48.934;12.050;2022-12-18T16:03:55;-1.00;93.30
68480;DHT22;55469;48.934;12.050;2022-12-18T16:06:22;-1.00;93.30
68480;DHT22;55469;48.934;12.050;2022-12-18T16:08:48;-1.00;93.30
68480;DHT22;55469;48.934;12.050;2022-12-18T16:11:28;-1.00;93.30
68480;DHT22;55469;48.934;12.050;2022-12-18T16:16:31;-1.10;93.30
68480;DHT22;55469;48.934;12.050;2022-12-18T16:18:57;-1.10;93.30
68480;DHT22;55469;48.934;12.050;2022-12-18T16:21:22;-1.10;93.30
68480;DHT22;55469;48.934;12.050;2022-12-18T16:23:48;-1.10;93.30
68480;DHT22;55469;48.934;12.050;2022-12-18T16:26:14;-1.10;93.30
68480;DHT22;55469;48.934;12.050;2022-12-18T16:28:40;-1.10;93.30
68480;DHT22;55469;48.934;12.050;2022-12-18T16:31:05;-1.10;93.30
68480;DHT22;55469;48.934;12.050;2022-12-18T16:33:31;-1.10;93.30
68480;DHT22;55469;48.934;12.050;2022-12-18T16:35:57;-1.10;93.30
68480;DHT22;55469;48.934;12.050;2022-12-18T16:38:22;-1.10;93.30
68480;DHT22;55469;48.934;12.050;2022-12-18T16:40:49;-1.10;93.40
68480;DHT22;55469;48.934;12.050;2022-12-18T16:43:33;-1.10;93.40
68480;DHT22;55469;48.934;12.050;2022-12-18T16:45:59;-1.20;93.40
68480;DHT22;55469;48.934;12.050;2022-12-18T16:48:28;-1.20;93.40
68480;DHT22;55469;48.934;12.050;2022-12-18T16:51:02;-1.20;93.40
68480;DHT22;55469;48.934;12.050;2022-12-18T16:53:29;-1.20;93.40
68480;DHT22;55469;48.934;12.050;2022-12-18T16:55:55;-1.20;93.40
68480;DHT22;55469;48.934;12.050;2022-12-18T16:58:22;-1.20;93.40
68480;DHT22;55469;48.934;12.050;2022-12-18T17:00:48;-1.20;93.50
68480;DHT22;55469;48.934;12.050;2022-12-18T17:03:13;-1.20;93.40
68480;DHT22;55469;48.934;12.050;2022-12-18T17:05:39;-1.20;93.40
68480;DHT22;55469;48.934;12.050;2022-12-18T17:08:05;-1.20;93.40
68480;DHT22;55469;48.934;12.050;2022-12-18T17:10:31;-1.20;93.50
68480;DHT22;55469;48.934;12.050;2022-12-18T17:12:56;-1.20;93.50
68480;DHT22;55469;48.934;12.050;2022-12-18T17:15:22;-1.20;93.40
68480;DHT22;55469;48.934;12.050;2022-12-18T17:17:48;-1.20;93.40
68480;DHT22;55469;48.934;12.050;2022-12-18T17:20:13;-1.20;93.40
68480;DHT22;55469;48.934;12.050;2022-12-18T17:22:39;-1.20;93.40
68480;DHT22;55469;48.934;12.050;2022-12-18T17:25:05;-1.30;93.40
68480;DHT22;55469;48.934;12.050;2022-12-18T17:27:31;-1.20;93.40
68480;DHT22;55469;48.934;12.050;2022-12-18T17:29:57;-1.30;93.40
68480;DHT22;55469;48.934;12.050;2022-12-18T17:32:22;-1.30;93.40
68480;DHT22;55469;48.934;12.050;2022-12-18T17:34:48;-1.30;93.40
68480;DHT22;55469;48.934;12.050;2022-12-18T17:37:14;-1.20;93.40